sensor_id;sensor_type;location;lat;lon;timestamp;temperature;humidity
19037;DHT22;9651;49.138;8.900;2024-03-02T00:03:23;6.10;99.90
19037;DHT22;9651;49.138;8.900;2024-03-02T00:07:25;6.10;99.90
19037;DHT22;9651;49.138;8.900;2024-03-02T00:11:28;6.10;99.90
19037;DHT22;9651;49.138;8.900;2024-03-02T00:15:46;6.10;99.90
19037;DHT22;9651;49.138;8.900;2024-03-02T00:19:48;6.00;99.90
19037;DHT22;9651;49.138;8.900;2024-03-02T00:23:50;6.00;99.90
19037;DHT22;9651;49.138;8.900;2024-03-02T00:27:54;6.00;99.90
19037;DHT22;9651;49.138;8.900;2024-03-02T00:31:56;6.00;99.90
19037;DHT22;9651;49.138;8.900;2024-03-02T00:35:59;5.90;99.90
19037;DHT22;9651;49.138;8.900;2024-03-02T00:40:01;5.90;99.90
19037;DHT22;9651;49.138;8.900;2024-03-02T00:44:07;5.80;99.90
19037;DHT22;9651;49.138;8.900;2024-03-02T00:48:09;5.80;99.90
19037;DHT22;9651;49.138;8.900;2024-03-02T00:52:12;5.80;99.90
19037;DHT22;9651;49.138;8.900;2024-03-02T00:56:14;5.80;99.90
19037;DHT22;9651;49.138;8.900;2024-03-02T01:00:18;5.80;99.90
19037;DHT22;9651;49.138;8.900;2024-03-02T01:04:20;5.70;99.90
19037;DHT22;9651;49.138;8.900;2024-03-02T01:08:22;5.70;99.90
19037;DHT22;9651;49.138;8.900;2024-03-02T01:12:24;5.70;99.90
19037;DHT22;9651;49.138;8.900;2024-03-02T01:16:27;5.70;99.90
19037;DHT22;9651;49.138;8.900;2024-03-02T01:20:29;5.60;99.90
19037;DHT22;9651;49.138;8.900;2024-03-02T01:24:31;5.60;99.90
19037;DHT22;9651;49.138;8.900;2024-03-02T01:28:33;5.50;99.90
19037;DHT22;9651;49.138;8.900;2024-03-02T01:32:37;5.40;99.90
19037;DHT22;9651;49.138;8.900;2024-03-02T01:36:39;5.30;99.90
19037;DHT22;9651;49.138;8.900;2024-03-02T01:40:42;5.20;99.90
19037;DHT22;9651;49.138;8.900;2024-03-02T01:44:45;5.20;99.90
19037;DHT22;9651;49.138;8.900;2024-03-02T01:48:48;5.10;99.90
19037;DHT22;9651;49.138;8.900;2024-03-02T01:52:50;5.00;99.90
19037;DHT22;9651;49.138;8.900;2024-03-02T01:56:52;4.90;99.90
19037;DHT22;9651;49.138;8.900;2024-03-02T02:00:54;4.90;99.90
19037;DHT22;9651;49.138;8.900;2024-03-02T02:04:57;4.90;99.90
19037;DHT22;9651;49.138;8.900;2024-03-02T02:08:59;4.80;99.90
19037;DHT22;9651;49.138;8.900;2024-03-02T02:13:01;4.90;99.90
19037;DHT22;9651;49.138;8.900;2024-03-02T02:17:03;4.80;99.90
19037;DHT22;9651;49.138;8.900;2024-03-02T02:21:06;4.80;99.90
19037;DHT22;9651;49.138;8.900;2024-03-02T02:25:10;4.70;99.90
19037;DHT22;9651;49.138;8.900;2024-03-02T02:29:12;4.60;99.90
19037;DHT22;9651;49.138;8.900;2024-03-02T02:33:14;4.50;99.90
19037;DHT22;9651;49.138;8.900;2024-03-02T02:37:16;4.40;99.90
19037;DHT22;9651;49.138;8.900;2024-03-02T02:41:19;4.40;99.90
19037;DHT22;9651;49.138;8.900;2024-03-02T02:45:21;4.40;99.90
19037;DHT22;9651;49.138;8.900;2024-03-02T02:49:23;4.30;99.90
19037;DHT22;9651;49.138;8.900;2024-03-02T02:53:25;4.30;99.90
19037;DHT22;9651;49.138;8.900;2024-03-02T02:57:28;4.20;99.90
19037;DHT22;9651;49.138;8.900;2024-03-02T03:01:31;4.20;99.90
19037;DHT22;9651;49.138;8.900;2024-03-02T03:05:33;4.20;99.90
19037;DHT22;9651;49.138;8.900;2024-03-02T03:09:37;4.20;99.90
19037;DHT22;9651;49.138;8.900;2024-03-02T03:13:41;4.20;99.90
19037;DHT22;9651;49.138;8.900;2024-03-02T03:17:43;4.20;99.90
19037;DHT22;9651;49.138;8.900;2024-03-02T03:21:46;4.10;99.90
19037;DHT22;9651;49.138;8.900;2024-03-02T03:25:48;4.10;99.90
19037;DHT22;9651;49.138;8.900;2024-03-02T03:29:51;4.10;99.90
19037;DHT22;9651;49.138;8.900;2024-03-02T03:33:53;4.10;99.90
19037;DHT22;9651;49.138;8.900;2024-03-02T03:37:55;4.10;99.90
19037;DHT22;9651;49.138;8.900;2024-03-02T03:41:57;4.10;99.90
19037;DHT22;9651;49.138;8.900;2024-03-02T03:46:03;4.00;99.90
19037;DHT22;9651;49.138;8.900;2024-03-02T03:50:06;3.90;99.90
19037;DHT22;9651;49.138;8.900;2024-03-02T03:54:08;3.90;99.90
19037;DHT22;9651;49.138;8.900;2024-03-02T03:58:11;3.90;99.90
19037;DHT22;9651;49.138;8.900;2024-03-02T04:02:15;3.80;99.90
19037;DHT22;9651;49.138;8.900;2024-03-02T04:06:17;3.70;99.90
19037;DHT22;9651;49.138;8.900;2024-03-02T04:10:19;3.70;99.90
19037;DHT22;9651;49.138;8.900;2024-03-02T04:14:21;3.60;99.90
19037;DHT22;9651;49.138;8.900;2024-03-02T04:18:24;3.60;99.90
19037;DHT22;9651;49.138;8.900;2024-03-02T04:22:26;3.70;99.90
19037;DHT22;9651;49.138;8.900;2024-03-02T04:26:28;3.60;99.90
19037;DHT22;9651;49.138;8.900;2024-03-02T04:30:30;3.60;99.90
19037;DHT22;9651;49.138;8.900;2024-03-02T04:34:33;3.60;99.90
19037;DHT22;9651;49.138;8.900;2024-03-02T04:38:35;3.60;99.90
19037;DHT22;9651;49.138;8.900;2024-03-02T04:42:37;3.60;99.90
19037;DHT22;9651;49.138;8.900;2024-03-02T04:46:38;3.60;99.90
19037;DHT22;9651;49.138;8.900;2024-03-02T04:50:42;3.60;99.90
19037;DHT22;9651;49.138;8.900;2024-03-02T04:54:43;3.60;99.90
19037;DHT22;9651;49.138;8.900;2024-03-02T04:58:59;3.60;99.90
19037;DHT22;9651;49.138;8.900;2024-03-02T05:03:01;3.60;99.90
19037;DHT22;9651;49.138;8.900;2024-03-02T05:07:05;3.70;99.90
19037;DHT22;9651;49.138;8.900;2024-03-02T05:11:07;3.70;99.90
19037;DHT22;9651;49.138;8.900;2024-03-02T05:15:26;3.80;99.90
19037;DHT22;9651;49.138;8.900;2024-03-02T05:19:28;3.80;99.90
19037;DHT22;9651;49.138;8.900;2024-03-02T05:23:31;3.90;99.90
19037;DHT22;9651;49.138;8.900;2024-03-02T05:27:33;4.00;99.90
19037;DHT22;9651;49.138;8.900;2024-03-02T05:31:35;4.10;99.90
19037;DHT22;9651;49.138;8.900;2024-03-02T05:35:37;4.10;99.90
19037;DHT22;9651;49.138;8.900;2024-03-02T05:39:40;4.20;99.90
19037;DHT22;9651;49.138;8.900;2024-03-02T05:43:43;4.20;99.90
19037;DHT22;9651;49.138;8.900;2024-03-02T05:47:45;4.20;99.90
19037;DHT22;9651;49.138;8.900;2024-03-02T05:51:47;4.20;99.90
19037;DHT22;9651;49.138;8.900;2024-03-02T05:55:50;4.20;99.90
19037;DHT22;9651;49.138;8.900;2024-03-02T05:59:56;4.20;99.90
19037;DHT22;9651;49.138;8.900;2024-03-02T06:03:58;4.20;99.90
19037;DHT22;9651;49.138;8.900;2024-03-02T06:08:00;4.30;99.90
19037;DHT22;9651;49.138;8.900;2024-03-02T06:12:04;4.30;99.90
19037;DHT22;9651;49.138;8.900;2024-03-02T06:16:06;4.30;99.90
19037;DHT22;9651;49.138;8.900;2024-03-02T06:20:09;4.30;99.90
19037;DHT22;9651;49.138;8.900;2024-03-02T06:24:12;4.30;99.90
19037;DHT22;9651;49.138;8.900;2024-03-02T06:28:15;4.30;99.90
19037;DHT22;9651;49.138;8.900;2024-03-02T06:32:17;4.40;99.90
19037;DHT22;9651;49.138;8.900;2024-03-02T06:36:18;4.40;99.90
19037;DHT22;9651;49.138;8.900;2024-03-02T06:40:20;4.40;99.90
19037;DHT22;9651;49.138;8.900;2024-03-02T06:44:23;4.50;99.90
19037;DHT22;9651;49.138;8.900;2024-03-02T06:48:25;4.50;99.90
19037;DHT22;9651;49.138;8.900;2024-03-02T06:52:27;4.60;99.90
19037;DHT22;9651;49.138;8.900;2024-03-02T06:56:29;4.70;99.90
19037;DHT22;9651;49.138;8.900;2024-03-02T07:00:32;4.70;99.90
19037;DHT22;9651;49.138;8.900;2024-03-02T07:04:34;4.80;99.90
19037;DHT22;9651;49.138;8.900;2024-03-02T07:08:36;4.90;99.90
19037;DHT22;9651;49.138;8.900;2024-03-02T07:12:38;5.00;99.90
19037;DHT22;9651;49.138;8.900;2024-03-02T07:16:41;5.20;99.90
19037;DHT22;9651;49.138;8.900;2024-03-02T07:20:43;5.20;99.90
19037;DHT22;9651;49.138;8.900;2024-03-02T07:24:45;5.30;99.90
19037;DHT22;9651;49.138;8.900;2024-03-02T07:28:47;5.30;99.90
19037;DHT22;9651;49.138;8.900;2024-03-02T07:32:51;5.30;99.90
19037;DHT22;9651;49.138;8.900;2024-03-02T07:36:53;5.30;99.90
19037;DHT22;9651;49.138;8.900;2024-03-02T07:40:55;5.30;99.90
19037;DHT22;9651;49.138;8.900;2024-03-02T07:44:58;5.30;99.90
19037;DHT22;9651;49.138;8.900;2024-03-02T07:49:01;5.40;99.90
19037;DHT22;9651;49.138;8.900;2024-03-02T07:53:04;5.50;99.90
19037;DHT22;9651;49.138;8.900;2024-03-02T07:57:06;5.60;99.90
19037;DHT22;9651;49.138;8.900;2024-03-02T08:01:09;5.60;99.90
19037;DHT22;9651;49.138;8.900;2024-03-02T08:05:12;5.80;99.90
19037;DHT22;9651;49.138;8.900;2024-03-02T08:09:14;5.90;99.90
19037;DHT22;9651;49.138;8.900;2024-03-02T08:13:16;6.10;99.90
19037;DHT22;9651;49.138;8.900;2024-03-02T08:17:18;6.40;99.90
19037;DHT22;9651;49.138;8.900;2024-03-02T08:21:21;6.90;99.90
19037;DHT22;9651;49.138;8.900;2024-03-02T08:25:23;7.80;99.90
19037;DHT22;9651;49.138;8.900;2024-03-02T08:29:25;8.80;99.90
19037;DHT22;9651;49.138;8.900;2024-03-02T08:33:27;9.70;99.90
19037;DHT22;9651;49.138;8.900;2024-03-02T08:37:30;10.40;99.90
19037;DHT22;9651;49.138;8.900;2024-03-02T08:41:32;11.20;99.90
19037;DHT22;9651;49.138;8.900;2024-03-02T08:45:34;11.70;99.90
19037;DHT22;9651;49.138;8.900;2024-03-02T08:49:36;12.30;99.90
19037;DHT22;9651;49.138;8.900;2024-03-02T08:53:39;12.90;99.90
19037;DHT22;9651;49.138;8.900;2024-03-02T08:57:41;13.50;99.90
19037;DHT22;9651;49.138;8.900;2024-03-02T09:01:43;14.10;99.90
19037;DHT22;9651;49.138;8.900;2024-03-02T09:05:45;14.80;99.90
19037;DHT22;9651;49.138;8.900;2024-03-02T09:09:48;15.40;99.90
19037;DHT22;9651;49.138;8.900;2024-03-02T09:13:50;15.70;99.90
19037;DHT22;9651;49.138;8.900;2024-03-02T09:17:53;16.00;99.90
19037;DHT22;9651;49.138;8.900;2024-03-02T09:21:55;16.40;99.90
19037;DHT22;9651;49.138;8.900;2024-03-02T09:26:00;16.70;99.90
19037;DHT22;9651;49.138;8.900;2024-03-02T09:30:04;16.90;99.90
19037;DHT22;9651;49.138;8.900;2024-03-02T09:34:07;17.30;99.90
19037;DHT22;9651;49.138;8.900;2024-03-02T09:38:08;17.50;99.90
19037;DHT22;9651;49.138;8.900;2024-03-02T09:42:12;17.50;99.90
19037;DHT22;9651;49.138;8.900;2024-03-02T09:46:15;17.00;99.90
19037;DHT22;9651;49.138;8.900;2024-03-02T09:50:17;17.00;99.90
19037;DHT22;9651;49.138;8.900;2024-03-02T09:54:19;17.60;99.90
19037;DHT22;9651;49.138;8.900;2024-03-02T09:58:23;18.10;99.90
19037;DHT22;9651;49.138;8.900;2024-03-02T10:02:25;17.80;99.90
19037;DHT22;9651;49.138;8.900;2024-03-02T10:06:28;17.90;99.90
19037;DHT22;9651;49.138;8.900;2024-03-02T10:10:37;18.30;99.90
19037;DHT22;9651;49.138;8.900;2024-03-02T10:14:43;19.10;99.90
19037;DHT22;9651;49.138;8.900;2024-03-02T10:18:45;19.70;99.90
19037;DHT22;9651;49.138;8.900;2024-03-02T10:22:47;20.40;99.90
19037;DHT22;9651;49.138;8.900;2024-03-02T10:26:49;20.70;99.90
19037;DHT22;9651;49.138;8.900;2024-03-02T10:30:53;20.50;99.90
19037;DHT22;9651;49.138;8.900;2024-03-02T10:34:54;20.80;99.90
19037;DHT22;9651;49.138;8.900;2024-03-02T10:38:58;21.40;99.90
19037;DHT22;9651;49.138;8.900;2024-03-02T10:43:01;21.80;99.90
19037;DHT22;9651;49.138;8.900;2024-03-02T10:47:09;22.10;99.90
19037;DHT22;9651;49.138;8.900;2024-03-02T10:51:13;22.70;99.60
19037;DHT22;9651;49.138;8.900;2024-03-02T10:55:15;23.40;98.00
19037;DHT22;9651;49.138;8.900;2024-03-02T10:59:24;23.40;95.50
19037;DHT22;9651;49.138;8.900;2024-03-02T11:03:29;23.60;95.70
19037;DHT22;9651;49.138;8.900;2024-03-02T11:07:36;23.90;94.60
19037;DHT22;9651;49.138;8.900;2024-03-02T11:11:41;24.10;93.90
19037;DHT22;9651;49.138;8.900;2024-03-02T11:15:44;24.40;93.00
19037;DHT22;9651;49.138;8.900;2024-03-02T11:19:49;24.80;92.30
19037;DHT22;9651;49.138;8.900;2024-03-02T11:23:51;24.80;91.50
19037;DHT22;9651;49.138;8.900;2024-03-02T11:28:00;23.70;91.80
19037;DHT22;9651;49.138;8.900;2024-03-02T11:32:03;22.60;92.30
19037;DHT22;9651;49.138;8.900;2024-03-02T11:36:08;22.80;91.70
19037;DHT22;9651;49.138;8.900;2024-03-02T11:40:10;23.00;91.80
19037;DHT22;9651;49.138;8.900;2024-03-02T11:44:12;23.30;92.00
19037;DHT22;9651;49.138;8.900;2024-03-02T11:48:15;24.70;91.20
19037;DHT22;9651;49.138;8.900;2024-03-02T11:52:18;26.10;90.00
19037;DHT22;9651;49.138;8.900;2024-03-02T11:56:20;26.00;87.90
19037;DHT22;9651;49.138;8.900;2024-03-02T12:00:23;25.00;89.10
19037;DHT22;9651;49.138;8.900;2024-03-02T12:04:25;25.30;84.10
19037;DHT22;9651;49.138;8.900;2024-03-02T12:08:28;24.80;82.70
19037;DHT22;9651;49.138;8.900;2024-03-02T12:12:30;25.50;82.00
19037;DHT22;9651;49.138;8.900;2024-03-02T12:16:32;26.20;79.60
19037;DHT22;9651;49.138;8.900;2024-03-02T12:20:36;26.20;77.80
19037;DHT22;9651;49.138;8.900;2024-03-02T12:24:39;26.00;77.40
19037;DHT22;9651;49.138;8.900;2024-03-02T12:28:41;26.10;77.20
19037;DHT22;9651;49.138;8.900;2024-03-02T12:32:43;25.10;77.30
19037;DHT22;9651;49.138;8.900;2024-03-02T12:36:46;25.50;76.20
19037;DHT22;9651;49.138;8.900;2024-03-02T12:40:51;25.70;75.10
19037;DHT22;9651;49.138;8.900;2024-03-02T12:44:54;25.90;74.30
19037;DHT22;9651;49.138;8.900;2024-03-02T12:48:55;25.20;74.80
19037;DHT22;9651;49.138;8.900;2024-03-02T12:52:57;23.20;77.20
19037;DHT22;9651;49.138;8.900;2024-03-02T12:57:02;21.40;80.00
19037;DHT22;9651;49.138;8.900;2024-03-02T13:01:07;20.20;81.70
19037;DHT22;9651;49.138;8.900;2024-03-02T13:05:10;19.10;84.60
19037;DHT22;9651;49.138;8.900;2024-03-02T13:09:11;18.30;86.30
19037;DHT22;9651;49.138;8.900;2024-03-02T13:13:16;17.70;87.70
19037;DHT22;9651;49.138;8.900;2024-03-02T13:17:19;17.20;89.20
19037;DHT22;9651;49.138;8.900;2024-03-02T13:21:21;17.00;90.60
19037;DHT22;9651;49.138;8.900;2024-03-02T13:25:22;16.70;91.40
19037;DHT22;9651;49.138;8.900;2024-03-02T13:29:26;16.70;91.30
19037;DHT22;9651;49.138;8.900;2024-03-02T13:33:28;16.70;91.80
19037;DHT22;9651;49.138;8.900;2024-03-02T13:37:31;16.50;92.10
19037;DHT22;9651;49.138;8.900;2024-03-02T13:41:33;16.40;92.60
19037;DHT22;9651;49.138;8.900;2024-03-02T13:45:36;16.20;93.10
19037;DHT22;9651;49.138;8.900;2024-03-02T13:49:38;16.00;93.10
19037;DHT22;9651;49.138;8.900;2024-03-02T13:53:44;16.00;93.90
19037;DHT22;9651;49.138;8.900;2024-03-02T13:57:46;16.00;93.90
19037;DHT22;9651;49.138;8.900;2024-03-02T14:01:50;16.10;94.20
19037;DHT22;9651;49.138;8.900;2024-03-02T14:05:52;16.20;94.10
19037;DHT22;9651;49.138;8.900;2024-03-02T14:09:56;16.10;94.30
19037;DHT22;9651;49.138;8.900;2024-03-02T14:13:58;15.90;94.60
19037;DHT22;9651;49.138;8.900;2024-03-02T14:18:02;16.00;94.90
19037;DHT22;9651;49.138;8.900;2024-03-02T14:22:04;16.00;95.10
19037;DHT22;9651;49.138;8.900;2024-03-02T14:26:06;16.00;94.70
19037;DHT22;9651;49.138;8.900;2024-03-02T14:30:08;16.00;95.20
19037;DHT22;9651;49.138;8.900;2024-03-02T14:34:12;16.00;95.40
19037;DHT22;9651;49.138;8.900;2024-03-02T14:38:14;15.90;95.30
19037;DHT22;9651;49.138;8.900;2024-03-02T14:42:16;16.00;95.60
19037;DHT22;9651;49.138;8.900;2024-03-02T14:46:18;16.00;95.60
19037;DHT22;9651;49.138;8.900;2024-03-02T14:50:22;16.10;95.40
19037;DHT22;9651;49.138;8.900;2024-03-02T14:54:24;16.10;95.40
19037;DHT22;9651;49.138;8.900;2024-03-02T14:58:26;16.10;95.40
19037;DHT22;9651;49.138;8.900;2024-03-02T15:02:29;16.10;95.70
19037;DHT22;9651;49.138;8.900;2024-03-02T15:06:32;16.00;96.00
19037;DHT22;9651;49.138;8.900;2024-03-02T15:10:34;15.90;95.80
19037;DHT22;9651;49.138;8.900;2024-03-02T15:14:37;15.90;95.80
19037;DHT22;9651;49.138;8.900;2024-03-02T15:18:39;15.90;95.70
19037;DHT22;9651;49.138;8.900;2024-03-02T15:22:42;15.90;95.60
19037;DHT22;9651;49.138;8.900;2024-03-02T15:26:44;15.90;96.00
19037;DHT22;9651;49.138;8.900;2024-03-02T15:30:46;15.90;95.80
19037;DHT22;9651;49.138;8.900;2024-03-02T15:34:48;15.80;95.70
19037;DHT22;9651;49.138;8.900;2024-03-02T15:38:51;15.70;96.60
19037;DHT22;9651;49.138;8.900;2024-03-02T15:42:53;15.60;97.00
19037;DHT22;9651;49.138;8.900;2024-03-02T15:46:55;15.50;97.30
19037;DHT22;9651;49.138;8.900;2024-03-02T15:50:56;15.50;97.10
19037;DHT22;9651;49.138;8.900;2024-03-02T15:55:00;15.40;97.30
19037;DHT22;9651;49.138;8.900;2024-03-02T15:59:02;15.40;97.10
19037;DHT22;9651;49.138;8.900;2024-03-02T16:03:05;15.40;97.00
19037;DHT22;9651;49.138;8.900;2024-03-02T16:07:07;15.40;97.40
19037;DHT22;9651;49.138;8.900;2024-03-02T16:11:11;15.40;97.30
19037;DHT22;9651;49.138;8.900;2024-03-02T16:15:13;15.40;97.30
19037;DHT22;9651;49.138;8.900;2024-03-02T16:19:15;15.40;97.40
19037;DHT22;9651;49.138;8.900;2024-03-02T16:23:16;15.30;97.70
19037;DHT22;9651;49.138;8.900;2024-03-02T16:27:20;15.20;97.80
19037;DHT22;9651;49.138;8.900;2024-03-02T16:31:21;15.20;98.30
19037;DHT22;9651;49.138;8.900;2024-03-02T16:35:25;15.10;99.40
19037;DHT22;9651;49.138;8.900;2024-03-02T16:39:27;15.10;99.90
19037;DHT22;9651;49.138;8.900;2024-03-02T16:43:30;14.90;99.90
19037;DHT22;9651;49.138;8.900;2024-03-02T16:47:32;14.80;99.90
19037;DHT22;9651;49.138;8.900;2024-03-02T16:51:38;14.70;99.90
19037;DHT22;9651;49.138;8.900;2024-03-02T16:55:40;14.60;99.90
19037;DHT22;9651;49.138;8.900;2024-03-02T16:59:43;14.50;99.90
19037;DHT22;9651;49.138;8.900;2024-03-02T17:03:45;14.30;99.90
19037;DHT22;9651;49.138;8.900;2024-03-02T17:07:47;14.20;99.90
19037;DHT22;9651;49.138;8.900;2024-03-02T17:11:49;14.00;99.90
19037;DHT22;9651;49.138;8.900;2024-03-02T17:39:13;13.20;99.90
19037;DHT22;9651;49.138;8.900;2024-03-02T17:43:15;12.60;99.90
19037;DHT22;9651;49.138;8.900;2024-03-02T17:47:16;12.50;99.90
19037;DHT22;9651;49.138;8.900;2024-03-02T17:51:18;12.40;99.90
19037;DHT22;9651;49.138;8.900;2024-03-02T17:55:22;12.40;99.90
19037;DHT22;9651;49.138;8.900;2024-03-02T17:59:23;12.30;99.90
19037;DHT22;9651;49.138;8.900;2024-03-02T18:03:25;12.20;99.90
19037;DHT22;9651;49.138;8.900;2024-03-02T18:07:27;12.10;99.90
19037;DHT22;9651;49.138;8.900;2024-03-02T18:11:31;12.10;99.90
19037;DHT22;9651;49.138;8.900;2024-03-02T18:15:32;12.10;99.90
19037;DHT22;9651;49.138;8.900;2024-03-02T18:19:34;12.20;99.90
19037;DHT22;9651;49.138;8.900;2024-03-02T18:23:36;12.20;99.90
19037;DHT22;9651;49.138;8.900;2024-03-02T18:27:39;12.30;99.90
19037;DHT22;9651;49.138;8.900;2024-03-02T18:31:41;12.20;99.90
19037;DHT22;9651;49.138;8.900;2024-03-02T18:35:43;12.30;99.90
19037;DHT22;9651;49.138;8.900;2024-03-02T18:39:45;12.30;99.90
19037;DHT22;9651;49.138;8.900;2024-03-02T18:43:49;12.30;99.90
19037;DHT22;9651;49.138;8.900;2024-03-02T18:47:51;12.30;99.90
19037;DHT22;9651;49.138;8.900;2024-03-02T18:51:54;12.30;99.90
19037;DHT22;9651;49.138;8.900;2024-03-02T18:55:56;12.20;99.90
19037;DHT22;9651;49.138;8.900;2024-03-02T18:59:59;12.30;99.90
19037;DHT22;9651;49.138;8.900;2024-03-02T19:04:02;12.30;99.90
19037;DHT22;9651;49.138;8.900;2024-03-02T19:08:05;12.30;99.90
19037;DHT22;9651;49.138;8.900;2024-03-02T19:12:07;12.20;99.90
19037;DHT22;9651;49.138;8.900;2024-03-02T19:16:11;12.20;99.90
19037;DHT22;9651;49.138;8.900;2024-03-02T19:20:13;12.10;99.90
19037;DHT22;9651;49.138;8.900;2024-03-02T19:24:16;12.10;99.90
19037;DHT22;9651;49.138;8.900;2024-03-02T19:28:17;12.00;99.90
19037;DHT22;9651;49.138;8.900;2024-03-02T19:32:21;11.90;99.90
19037;DHT22;9651;49.138;8.900;2024-03-02T19:36:24;12.00;99.90
19037;DHT22;9651;49.138;8.900;2024-03-02T19:40:26;12.00;99.90
19037;DHT22;9651;49.138;8.900;2024-03-02T19:44:28;11.90;99.90
19037;DHT22;9651;49.138;8.900;2024-03-02T19:48:35;11.90;99.90
19037;DHT22;9651;49.138;8.900;2024-03-02T19:52:36;11.90;99.90
19037;DHT22;9651;49.138;8.900;2024-03-02T19:56:38;11.80;99.90
19037;DHT22;9651;49.138;8.900;2024-03-02T20:00:40;11.90;99.90
19037;DHT22;9651;49.138;8.900;2024-03-02T20:04:44;11.80;99.90
19037;DHT22;9651;49.138;8.900;2024-03-02T20:08:46;11.80;99.90
19037;DHT22;9651;49.138;8.900;2024-03-02T20:12:48;11.70;99.90
19037;DHT22;9651;49.138;8.900;2024-03-02T20:16:50;11.60;99.90
19037;DHT22;9651;49.138;8.900;2024-03-02T20:20:53;11.60;99.90
19037;DHT22;9651;49.138;8.900;2024-03-02T20:24:55;11.50;99.90
19037;DHT22;9651;49.138;8.900;2024-03-02T20:28:57;11.50;99.90
19037;DHT22;9651;49.138;8.900;2024-03-02T20:32:59;11.40;99.90
19037;DHT22;9651;49.138;8.900;2024-03-02T20:37:02;11.30;99.90
19037;DHT22;9651;49.138;8.900;2024-03-02T20:41:04;11.20;99.90
19037;DHT22;9651;49.138;8.900;2024-03-02T20:45:07;11.10;99.90
19037;DHT22;9651;49.138;8.900;2024-03-02T20:49:09;11.10;99.90
19037;DHT22;9651;49.138;8.900;2024-03-02T20:53:13;11.00;99.90
19037;DHT22;9651;49.138;8.900;2024-03-02T20:57:15;11.00;99.90
19037;DHT22;9651;49.138;8.900;2024-03-02T21:01:16;10.90;99.90
19037;DHT22;9651;49.138;8.900;2024-03-02T21:05:18;10.80;99.90
19037;DHT22;9651;49.138;8.900;2024-03-02T21:09:22;10.70;99.90
19037;DHT22;9651;49.138;8.900;2024-03-02T21:13:24;10.70;99.90
19037;DHT22;9651;49.138;8.900;2024-03-02T21:17:27;10.60;99.90
19037;DHT22;9651;49.138;8.900;2024-03-02T21:21:29;10.60;99.90
19037;DHT22;9651;49.138;8.900;2024-03-02T21:25:32;10.50;99.90
19037;DHT22;9651;49.138;8.900;2024-03-02T21:29:35;10.50;99.90
19037;DHT22;9651;49.138;8.900;2024-03-02T21:33:37;10.50;99.90
19037;DHT22;9651;49.138;8.900;2024-03-02T21:37:39;10.40;99.90
19037;DHT22;9651;49.138;8.900;2024-03-02T21:41:43;10.50;99.90
19037;DHT22;9651;49.138;8.900;2024-03-02T21:45:45;10.40;99.90
19037;DHT22;9651;49.138;8.900;2024-03-02T21:49:47;10.40;99.90
19037;DHT22;9651;49.138;8.900;2024-03-02T21:53:49;10.30;99.90
19037;DHT22;9651;49.138;8.900;2024-03-02T21:57:52;10.30;99.90
19037;DHT22;9651;49.138;8.900;2024-03-02T22:01:55;10.20;99.90
19037;DHT22;9651;49.138;8.900;2024-03-02T22:05:57;10.20;99.90
19037;DHT22;9651;49.138;8.900;2024-03-02T22:09:58;10.20;99.90
19037;DHT22;9651;49.138;8.900;2024-03-02T22:14:02;10.20;99.90
19037;DHT22;9651;49.138;8.900;2024-03-02T22:18:04;10.20;99.90
19037;DHT22;9651;49.138;8.900;2024-03-02T22:22:06;10.10;99.90
19037;DHT22;9651;49.138;8.900;2024-03-02T22:26:08;9.90;99.90
19037;DHT22;9651;49.138;8.900;2024-03-02T22:30:11;9.90;99.90
19037;DHT22;9651;49.138;8.900;2024-03-02T22:34:13;9.80;99.90
19037;DHT22;9651;49.138;8.900;2024-03-02T22:38:15;9.80;99.90
19037;DHT22;9651;49.138;8.900;2024-03-02T22:42:17;9.80;99.90
19037;DHT22;9651;49.138;8.900;2024-03-02T22:46:20;9.80;99.90
19037;DHT22;9651;49.138;8.900;2024-03-02T22:50:22;9.80;99.90
19037;DHT22;9651;49.138;8.900;2024-03-02T22:54:24;9.80;99.90
19037;DHT22;9651;49.138;8.900;2024-03-02T22:58:26;9.80;99.90
19037;DHT22;9651;49.138;8.900;2024-03-02T23:02:30;9.80;99.90
19037;DHT22;9651;49.138;8.900;2024-03-02T23:06:32;9.90;99.90
19037;DHT22;9651;49.138;8.900;2024-03-02T23:10:34;9.90;99.90
19037;DHT22;9651;49.138;8.900;2024-03-02T23:14:36;9.90;99.90
19037;DHT22;9651;49.138;8.900;2024-03-02T23:18:40;9.80;99.90
19037;DHT22;9651;49.138;8.900;2024-03-02T23:22:42;9.70;99.90
19037;DHT22;9651;49.138;8.900;2024-03-02T23:26:45;9.60;99.90
19037;DHT22;9651;49.138;8.900;2024-03-02T23:30:47;9.60;99.90
19037;DHT22;9651;49.138;8.900;2024-03-02T23:34:50;9.50;99.90
19037;DHT22;9651;49.138;8.900;2024-03-02T23:38:52;9.50;99.90
19037;DHT22;9651;49.138;8.900;2024-03-02T23:42:55;9.50;99.90
19037;DHT22;9651;49.138;8.900;2024-03-02T23:46:57;9.30;99.90
19037;DHT22;9651;49.138;8.900;2024-03-02T23:51:00;9.30;99.90
19037;DHT22;9651;49.138;8.900;2024-03-02T23:55:02;9.20;99.90
19037;DHT22;9651;49.138;8.900;2024-03-02T23:59:04;9.20;99.90
